Ljuta — J8B4127 — position and weather

sailwx.info

Track history (hours):
 
Tides and Currents Weather Stations Pressure Air Temp Water Temp Dewpoint Dewpoint Depression Visibility Wind Speed Wind Dir Waves Ship Positions

Ljuta

Last reported at 2015-Aug-31 05:33 UTC. Time now 2015-Sep-01 10:11 UTC.
Position N 37°12' W 006°56'.

Length 177 m; draft 9.4 m.

Type: Cargo ship. MMSI: 377715000.

Date/timePositionNaut miles runAvg speedWind from/ knotsBaromVisibWave heightAir tempDewpointWater temp
2015-Aug-31 05:33N 37°12' W 006°56'0 0.0
2015-Aug-31 03:03N 37°12' W 006°56'0 0.0
2015-Aug-31 02:33N 37°12' W 006°56'229 4.9
2015-Aug-29 03:33N 36°25' W 002°16'2713.0
2015-Aug-29 01:28N 36°29' W 001°43'1213.1
2015-Aug-29 00:33N 36°31' W 001°28'2013.4
2015-Aug-28 23:06N 36°33' W 001°04'1013.4
2015-Aug-28 22:20N 36°34' W 000°52'1413.5
2015-Aug-28 21:19N 36°36' W 000°35'1013.2
2015-Aug-28 20:33N 36°38' W 000°22'1313.1
2015-Aug-28 19:33N 36°39' W 000°06'1313.1
2015-Aug-28 18:33N 36°41' E 000°10'1313.2
2015-Aug-28 17:33N 36°43' E 000°26'1313.1
2015-Aug-28 16:32N 36°45' E 000°43'1313.0
2015-Aug-28 15:33N 36°46' E 000°59'1413.5
2015-Aug-28 14:33N 36°48' E 001°15'4113.5
2015-Aug-28 11:33N 36°52' E 002°06'14412.9
2015-Aug-28 00:24N 37°10' E 005°04'1112.8
2015-Aug-27 23:33N 37°12' E 005°18'1312.8
2015-Aug-27 22:33N 37°14' E 005°34'1413.4
2015-Aug-27 21:28N 37°17' E 005°51'8113.4
2015-Aug-27 15:28N 37°28' E 007°32'7913.1
2015-Aug-27 09:23N 37°39' E 009°11'12812.8
2015-Aug-26 23:24N 37°17' E 011°50'1213.3
2015-Aug-26 22:32N 37°13' E 012°04'1313.0
2015-Aug-26 21:33N 37°10' E 012°19'1313.1
2015-Aug-26 20:33N 37°06' E 012°35'1313.0
2015-Aug-26 19:33N 37°03' E 012°51'1312.9
2015-Aug-26 18:34N 36°59' E 013°06'1312.9
2015-Aug-26 17:34N 36°56' E 013°22'1312.9
2015-Aug-26 16:34N 36°52' E 013°37'1312.7
2015-Aug-26 15:34N 36°48' E 013°52'1312.9
2015-Aug-26 14:33N 36°45' E 014°08'1312.7
2015-Aug-26 13:34N 36°42' E 014°23'1312.7
2015-Aug-26 12:34N 36°38' E 014°38'47512.2
2015-Aug-24 21:32N 37°45' E 024°29'28312.3
2015-Aug-23 22:30N 40°58' E 028°57'  
Track history (hours):
 
Tides and Currents Weather Stations Pressure Air Temp Water Temp Dewpoint Dewpoint Depression Visibility Wind Speed Wind Dir Waves Ship Positions

Ljuta

Last reported at 2015-Aug-31 05:33 UTC. Time now 2015-Sep-01 10:11 UTC.
Position N 37°12' W 006°56'.

Length 177 m; draft 9.4 m.

Type: Cargo ship. MMSI: 377715000.

Date/timePositionNaut miles runAvg speedWind from/ knotsBaromVisibWave heightAir tempDewpointWater temp
2015-Aug-31 05:33N 37°12' W 006°56'0 0.0
2015-Aug-31 03:03N 37°12' W 006°56'0 0.0
2015-Aug-31 02:33N 37°12' W 006°56'229 4.9
2015-Aug-29 03:33N 36°25' W 002°16'2713.0
2015-Aug-29 01:28N 36°29' W 001°43'1213.1
2015-Aug-29 00:33N 36°31' W 001°28'2013.4
2015-Aug-28 23:06N 36°33' W 001°04'1013.4
2015-Aug-28 22:20N 36°34' W 000°52'1413.5
2015-Aug-28 21:19N 36°36' W 000°35'1013.2
2015-Aug-28 20:33N 36°38' W 000°22'1313.1
2015-Aug-28 19:33N 36°39' W 000°06'1313.1
2015-Aug-28 18:33N 36°41' E 000°10'1313.2
2015-Aug-28 17:33N 36°43' E 000°26'1313.1
2015-Aug-28 16:32N 36°45' E 000°43'1313.0
2015-Aug-28 15:33N 36°46' E 000°59'1413.5
2015-Aug-28 14:33N 36°48' E 001°15'4113.5
2015-Aug-28 11:33N 36°52' E 002°06'14412.9
2015-Aug-28 00:24N 37°10' E 005°04'1112.8
2015-Aug-27 23:33N 37°12' E 005°18'1312.8
2015-Aug-27 22:33N 37°14' E 005°34'1413.4
2015-Aug-27 21:28N 37°17' E 005°51'8113.4
2015-Aug-27 15:28N 37°28' E 007°32'7913.1
2015-Aug-27 09:23N 37°39' E 009°11'12812.8
2015-Aug-26 23:24N 37°17' E 011°50'1213.3
2015-Aug-26 22:32N 37°13' E 012°04'1313.0
2015-Aug-26 21:33N 37°10' E 012°19'1313.1
2015-Aug-26 20:33N 37°06' E 012°35'1313.0
2015-Aug-26 19:33N 37°03' E 012°51'1312.9
2015-Aug-26 18:34N 36°59' E 013°06'1312.9
2015-Aug-26 17:34N 36°56' E 013°22'1312.9
2015-Aug-26 16:34N 36°52' E 013°37'1312.7
2015-Aug-26 15:34N 36°48' E 013°52'1312.9
2015-Aug-26 14:33N 36°45' E 014°08'1312.7
2015-Aug-26 13:34N 36°42' E 014°23'1312.7
2015-Aug-26 12:34N 36°38' E 014°38'47512.2
2015-Aug-24 21:32N 37°45' E 024°29'28312.3
2015-Aug-23 22:30N 40°58' E 028°57'  

Dump ship's entire track history